Time;durP1;ratioP1;P1;durP2;ratioP2;P2;SDS_P1;SDS_P2;PMS_P1;PMS_P2;Temp;Humidity;BMP_temperature;BMP_pressure;BME280_temperature;BME280_humidity;BME280_pressure;Samples;Min_cycle;Max_cycle;Signal;HPM_P1;HPM_P2
2023/05/22 00:01:05;;;;;;;12.98;5.95;;;;;;;12.33;100.00;101794.56;4990122;28;20054;-66
2023/05/22 00:03:32;;;;;;;12.98;5.93;;;;;;;12.47;100.00;101804.69;4991717;28;20046;-66
2023/05/22 00:05:59;;;;;;;13.35;5.88;;;;;;;12.55;100.00;101786.06;4992209;28;20074;-67
2023/05/22 00:08:26;;;;;;;13.25;5.35;;;;;;;12.67;100.00;101795.38;4990309;28;20532;-66
2023/05/22 00:10:55;;;;;;;16.20;6.65;;;;;;;12.52;100.00;101799.31;4990832;28;20428;-67
2023/05/22 00:13:22;;;;;;;13.93;6.20;;;;;;;12.33;100.00;101793.72;4991106;28;20104;-66
2023/05/22 00:15:49;;;;;;;13.25;6.43;;;;;;;12.33;100.00;101798.97;4990215;28;20546;-67
2023/05/22 00:18:16;;;;;;;15.30;6.93;;;;;;;12.54;100.00;101795.72;4991130;28;20500;-66
2023/05/22 00:20:45;;;;;;;11.93;5.22;;;;;;;12.38;100.00;101797.06;4991327;28;20050;-67
2023/05/22 00:23:12;;;;;;;14.68;6.18;;;;;;;12.37;100.00;101794.50;4991920;28;20073;-66
2023/05/22 00:25:41;;;;;;;14.32;6.10;;;;;;;12.50;100.00;101803.72;4972479;28;20050;-66
2023/05/22 00:28:10;;;;;;;12.70;5.57;;;;;;;12.48;100.00;101803.81;4965091;28;20051;-66
2023/05/22 00:30:37;;;;;;;11.52;4.43;;;;;;;12.53;100.00;101788.75;4986721;28;20137;-67
2023/05/22 00:33:05;;;;;;;13.02;5.95;;;;;;;12.51;100.00;101795.81;4991699;28;20077;-66
2023/05/22 00:35:32;;;;;;;12.77;5.85;;;;;;;12.57;100.00;101788.66;4990141;28;20050;-67
2023/05/22 00:38:02;;;;;;;12.57;5.55;;;;;;;12.54;100.00;101785.22;4990797;28;20137;-66
2023/05/22 00:40:29;;;;;;;14.65;5.25;;;;;;;12.26;100.00;101764.13;4990272;28;20503;-66
2023/05/22 00:42:56;;;;;;;12.10;5.50;;;;;;;12.41;100.00;101785.63;4990621;28;20050;-66
2023/05/22 00:45:23;;;;;;;11.23;4.68;;;;;;;12.43;100.00;101766.28;4989733;28;20046;-66
2023/05/22 00:47:51;;;;;;;11.63;4.38;;;;;;;12.52;100.00;101781.78;4990706;28;20056;-65
2023/05/22 00:50:18;;;;;;;11.13;4.72;;;;;;;12.45;100.00;101779.38;4990597;28;20463;-66
2023/05/22 00:52:46;;;;;;;11.57;4.97;;;;;;;12.43;100.00;101776.81;4989759;28;20058;-66
2023/05/22 00:55:14;;;;;;;13.10;4.93;;;;;;;12.46;100.00;101770.59;4990529;28;20050;-66
2023/05/22 00:57:41;;;;;;;10.73;4.28;;;;;;;12.43;100.00;101765.41;4990001;28;20088;-66
2023/05/22 01:00:12;;;;;;;10.13;4.35;;;;;;;12.35;100.00;101760.41;4990561;28;20053;-66
2023/05/22 01:02:41;;;;;;;11.93;5.03;;;;;;;12.31;100.00;101758.78;4990755;28;20463;-66
2023/05/22 01:05:11;;;;;;;11.07;4.63;;;;;;;12.40;100.00;101760.28;4989734;28;20046;-66
2023/05/22 01:07:39;;;;;;;9.05;3.90;;;;;;;12.38;100.00;101743.66;4979192;28;20500;-66
2023/05/22 01:10:06;;;;;;;11.50;4.75;;;;;;;12.36;100.00;101762.13;4989813;28;20069;-66
2023/05/22 01:12:56;;;;;;;13.95;4.75;;;;;;;12.32;100.00;101752.59;4990153;28;20050;-67
2023/05/22 01:15:34;;;;;;;10.45;4.30;;;;;;;12.41;100.00;101749.72;4984763;28;20043;-66
2023/05/22 01:18:18;;;;;;;9.40;3.55;;;;;;;12.60;100.00;101751.78;4990528;28;20145;-66
2023/05/22 01:21:09;;;;;;;9.82;3.85;;;;;;;12.72;100.00;101756.69;4989991;28;20058;-66
2023/05/22 01:23:38;;;;;;;10.40;3.63;;;;;;;12.71;100.00;101754.94;4989640;28;20066;-66
2023/05/22 01:26:11;;;;;;;8.77;3.15;;;;;;;12.80;100.00;101749.44;4989768;28;20138;-66
2023/05/22 01:28:54;;;;;;;9.23;3.55;;;;;;;12.82;100.00;101752.00;4988889;28;20125;-66
2023/05/22 01:31:30;;;;;;;9.52;3.78;;;;;;;12.69;100.00;101749.75;4988281;28;20133;-67
2023/05/22 01:33:59;;;;;;;10.23;3.85;;;;;;;12.64;100.00;101745.53;4984398;28;20038;-67
2023/05/22 01:36:30;;;;;;;10.50;3.88;;;;;;;12.61;100.00;101748.28;4990011;28;20400;-67
2023/05/22 01:39:00;;;;;;;9.35;3.53;;;;;;;12.64;100.00;101742.91;4990340;28;20050;-67
2023/05/22 01:41:28;;;;;;;8.90;3.35;;;;;;;12.64;100.00;101730.66;4985474;28;20042;-66
2023/05/22 01:43:55;;;;;;;8.23;3.03;;;;;;;12.72;100.00;101744.41;4986009;28;20496;-67
2023/05/22 01:46:29;;;;;;;9.75;3.58;;;;;;;12.79;100.00;101744.22;4990321;28;20046;-67
2023/05/22 01:48:56;;;;;;;9.38;3.72;;;;;;;12.73;100.00;101737.41;4985359;28;20058;-67
2023/05/22 01:51:35;;;;;;;8.95;3.40;;;;;;;12.71;100.00;101734.81;4989936;28;20057;-67
2023/05/22 01:54:23;;;;;;;8.13;2.65;;;;;;;12.82;100.00;101733.59;4981417;28;20096;-66
2023/05/22 01:57:06;;;;;;;8.55;3.22;;;;;;;12.85;100.00;101723.00;4975229;28;20073;-67
2023/05/22 01:59:44;;;;;;;7.03;2.70;;;;;;;12.90;100.00;101736.84;4989035;28;20056;-67
2023/05/22 02:02:16;;;;;;;8.38;3.28;;;;;;;12.86;100.00;101735.25;4967006;28;20050;-66
2023/05/22 02:04:54;;;;;;;8.23;2.95;;;;;;;12.85;100.00;101731.72;4971304;28;20046;-66
2023/05/22 02:07:23;;;;;;;9.05;3.72;;;;;;;12.81;100.00;101727.50;4987765;28;20066;-66
2023/05/22 02:09:52;;;;;;;9.00;3.53;;;;;;;12.83;100.00;101724.81;4989389;28;20053;-66
2023/05/22 02:12:20;;;;;;;9.82;3.92;;;;;;;12.87;100.00;101731.69;4992759;28;20132;-66
2023/05/22 02:14:48;;;;;;;9.80;3.10;;;;;;;12.84;100.00;101726.56;4991895;28;20042;-67
2023/05/22 02:17:16;;;;;;;9.18;3.50;;;;;;;12.72;100.00;101719.91;4993047;28;20054;-67
2023/05/22 02:19:44;;;;;;;9.60;3.83;;;;;;;12.64;100.00;101712.25;4991940;28;20061;-66
2023/05/22 02:22:13;;;;;;;10.48;3.85;;;;;;;12.64;100.00;101714.88;4992932;28;20058;-66
2023/05/22 02:24:46;;;;;;;8.73;3.33;;;;;;;12.68;100.00;101706.00;4992395;28;20050;-66
2023/05/22 02:27:13;;;;;;;9.73;3.60;;;;;;;12.64;100.00;101708.75;4993081;28;20054;-67
2023/05/22 02:29:40;;;;;;;9.88;3.42;;;;;;;12.55;100.00;101707.25;4992571;28;20082;-67
2023/05/22 02:32:07;;;;;;;9.35;3.58;;;;;;;12.45;100.00;101703.22;4992282;28;20050;-66
2023/05/22 02:34:34;;;;;;;8.90;3.15;;;;;;;12.64;100.00;101706.13;4991971;28;20498;-67
2023/05/22 02:37:04;;;;;;;9.20;3.55;;;;;;;12.75;100.00;101716.31;4992825;28;20046;-66
2023/05/22 02:39:30;;;;;;;9.40;3.95;;;;;;;12.67;100.00;101706.03;4993098;28;20050;-67
2023/05/22 02:41:57;;;;;;;9.68;3.38;;;;;;;12.73;100.00;101713.75;4992659;28;20472;-66
2023/05/22 02:44:24;;;;;;;9.95;4.38;;;;;;;12.60;100.00;101713.25;4987914;28;20419;-67
2023/05/22 02:46:51;;;;;;;10.10;4.03;;;;;;;12.62;100.00;101707.94;4984576;28;20050;-66
2023/05/22 02:49:18;;;;;;;10.60;3.78;;;;;;;12.70;100.00;101708.59;4992209;28;20085;-67
2023/05/22 02:51:46;;;;;;;10.38;3.35;;;;;;;12.68;100.00;101705.16;4992912;28;20144;-66
2023/05/22 02:54:14;;;;;;;8.68;3.28;;;;;;;12.73;100.00;101708.50;4987675;28;20050;-66
2023/05/22 02:56:42;;;;;;;9.60;3.30;;;;;;;12.75;100.00;101697.91;4990921;28;20043;-66
2023/05/22 02:59:09;;;;;;;10.20;3.88;;;;;;;12.72;100.00;101709.38;4992454;28;20121;-66
2023/05/22 03:01:37;;;;;;;10.25;4.18;;;;;;;12.70;100.00;101703.31;4984242;28;20050;-66
2023/05/22 03:04:05;;;;;;;11.02;3.45;;;;;;;12.76;100.00;101694.38;4991782;28;20050;-66
2023/05/22 03:06:33;;;;;;;10.73;4.30;;;;;;;12.72;100.00;101691.00;4992327;28;20161;-66
2023/05/22 03:09:02;;;;;;;9.93;3.97;;;;;;;12.88;100.00;101686.09;4991903;28;20124;-67
2023/05/22 03:11:31;;;;;;;10.15;3.92;;;;;;;12.80;100.00;101682.84;4991161;28;20093;-66
2023/05/22 03:13:57;;;;;;;9.52;3.92;;;;;;;12.81;100.00;101690.69;4992291;28;20046;-66
2023/05/22 03:16:25;;;;;;;10.00;3.72;;;;;;;12.72;100.00;101683.97;4991916;28;20080;-67
2023/05/22 03:19:15;;;;;;;9.10;3.30;;;;;;;12.78;100.00;101680.28;4988417;28;20065;-66
2023/05/22 03:21:47;;;;;;;9.73;4.07;;;;;;;12.77;100.00;101693.50;4991332;28;20061;-66
2023/05/22 03:24:13;;;;;;;8.32;3.33;;;;;;;12.66;100.00;101683.28;4985690;28;20133;-66
2023/05/22 03:26:40;;;;;;;8.52;2.92;;;;;;;12.72;100.00;101686.59;4991826;28;20532;-67
2023/05/22 03:29:07;;;;;;;8.63;3.00;;;;;;;12.72;100.00;101689.22;4992557;28;20148;-66
2023/05/22 03:31:34;;;;;;;7.25;2.72;;;;;;;12.87;100.00;101689.63;4992018;28;20050;-67
2023/05/22 03:34:02;;;;;;;8.38;3.63;;;;;;;12.77;100.00;101678.56;4993013;28;20052;-66
2023/05/22 03:36:32;;;;;;;8.18;3.08;;;;;;;12.84;100.00;101682.72;4990322;28;20038;-65
2023/05/22 03:38:59;;;;;;;9.30;3.67;;;;;;;12.75;100.00;101687.41;4979818;28;20050;-67
2023/05/22 03:41:26;;;;;;;7.82;3.03;;;;;;;12.77;100.00;101690.88;4991237;28;20315;-66
2023/05/22 03:43:53;;;;;;;8.15;3.00;;;;;;;12.85;100.00;101683.56;4991710;28;20052;-66
2023/05/22 03:46:19;;;;;;;8.18;3.33;;;;;;;12.79;100.00;101689.88;4991051;28;20141;-67
2023/05/22 03:48:47;;;;;;;8.00;3.53;;;;;;;12.75;100.00;101690.91;4991807;28;20081;-67
2023/05/22 03:51:13;;;;;;;9.77;3.50;;;;;;;12.65;100.00;101689.47;4991920;28;20137;-66
2023/05/22 03:53:40;;;;;;;9.05;3.88;;;;;;;12.73;100.00;101697.97;4979074;28;20046;-66
2023/05/22 03:56:07;;;;;;;7.05;2.28;;;;;;;12.77;100.00;101686.47;4990301;28;20048;-67
2023/05/22 03:58:34;;;;;;;8.98;3.42;;;;;;;12.82;100.00;101700.31;4989543;28;20053;-67
2023/05/22 04:01:00;;;;;;;9.85;4.05;;;;;;;12.81;100.00;101716.97;4987626;28;20060;-66
2023/05/22 04:03:27;;;;;;;9.27;3.78;;;;;;;12.72;100.00;101706.75;4991555;28;20124;-66
2023/05/22 04:05:55;;;;;;;9.40;3.78;;;;;;;12.67;100.00;101703.41;4992722;28;20050;-66
2023/05/22 04:08:22;;;;;;;9.75;3.88;;;;;;;12.56;100.00;101705.53;4986533;28;20058;-66
2023/05/22 04:10:49;;;;;;;9.65;3.85;;;;;;;12.57;100.00;101708.09;4990545;28;20142;-66
2023/05/22 04:13:16;;;;;;;8.10;3.20;;;;;;;12.75;100.00;101714.56;4991251;28;20058;-67
2023/05/22 04:15:45;;;;;;;10.32;2.95;;;;;;;12.86;100.00;101720.31;4989769;28;20046;-66
2023/05/22 04:18:12;;;;;;;7.95;3.38;;;;;;;12.91;100.00;101725.44;4990629;28;20050;-67
2023/05/22 04:20:39;;;;;;;8.18;3.28;;;;;;;12.84;100.00;101722.16;4991363;28;20612;-66
2023/05/22 04:23:06;;;;;;;8.48;3.25;;;;;;;12.80;100.00;101717.03;4991659;28;20515;-66
2023/05/22 04:25:33;;;;;;;6.80;2.33;;;;;;;12.91;100.00;101722.81;4989780;28;20050;-67
2023/05/22 04:28:03;;;;;;;7.25;2.75;;;;;;;12.90;100.00;101732.44;4990122;28;20149;-66
2023/05/22 04:30:32;;;;;;;7.20;2.70;;;;;;;12.87;100.00;101715.91;4973515;28;20047;-66
2023/05/22 04:33:00;;;;;;;7.28;2.45;;;;;;;12.94;100.00;101719.22;4990616;28;20145;-66
2023/05/22 04:35:28;;;;;;;6.80;2.50;;;;;;;12.95;100.00;101719.19;4989655;28;20050;-67
2023/05/22 04:37:56;;;;;;;6.15;2.28;;;;;;;13.04;100.00;101715.41;4990598;28;20054;-66
2023/05/22 04:40:22;;;;;;;8.93;2.17;;;;;;;13.08;100.00;101720.50;4985161;28;20144;-66
2023/05/22 04:42:53;;;;;;;5.80;2.10;;;;;;;13.07;100.00;101726.66;4990587;28;20172;-66
2023/05/22 04:45:24;;;;;;;8.20;2.80;;;;;;;13.15;100.00;101720.31;4982073;28;20046;-66
2023/05/22 04:47:51;;;;;;;7.78;2.75;;;;;;;13.03;100.00;101732.94;4990460;28;20145;-66
2023/05/22 04:50:19;;;;;;;7.80;2.80;;;;;;;13.00;100.00;101735.66;4990420;28;20054;-66
2023/05/22 04:52:46;;;;;;;8.05;3.22;;;;;;;12.90;100.00;101739.47;4989981;28;20046;-67
2023/05/22 04:55:13;;;;;;;8.25;3.03;;;;;;;12.98;100.00;101745.38;4990096;28;20047;-66
2023/05/22 04:57:43;;;;;;;7.75;3.00;;;;;;;12.98;100.00;101745.38;4980034;28;20548;-66
2023/05/22 05:00:12;;;;;;;7.90;3.20;;;;;;;13.06;100.00;101739.84;4989300;28;20046;-66
2023/05/22 05:02:39;;;;;;;6.80;2.72;;;;;;;13.11;100.00;101737.94;4989396;28;20049;-66
2023/05/22 05:05:07;;;;;;;6.93;2.40;;;;;;;13.13;100.00;101743.16;4989599;28;20233;-67
2023/05/22 05:07:42;;;;;;;7.25;2.60;;;;;;;13.19;100.00;101737.69;4986337;28;20053;-66
2023/05/22 05:10:09;;;;;;;7.32;2.63;;;;;;;13.28;100.00;101748.78;4990333;28;20058;-67
2023/05/22 05:12:36;;;;;;;7.32;2.63;;;;;;;13.29;100.00;101750.47;4990711;28;20133;-67
2023/05/22 05:15:03;;;;;;;8.05;2.75;;;;;;;13.19;100.00;101741.19;4987944;28;20149;-66
2023/05/22 05:17:30;;;;;;;6.80;2.65;;;;;;;13.24;100.00;101746.28;4989771;28;20054;-67
2023/05/22 05:19:57;;;;;;;9.75;4.00;;;;;;;13.25;100.00;101748.88;4989933;28;20090;-67
2023/05/22 05:22:24;;;;;;;10.75;4.50;;;;;;;13.21;100.00;101743.75;4989194;28;20065;-67
2023/05/22 05:24:51;;;;;;;14.55;6.38;;;;;;;12.98;100.00;101741.84;4989509;28;20057;-65
2023/05/22 05:27:17;;;;;;;9.63;3.90;;;;;;;13.14;100.00;101744.84;4991456;28;20146;-66
2023/05/22 05:29:45;;;;;;;12.85;4.60;;;;;;;13.09;100.00;101745.03;4989314;28;20472;-67
2023/05/22 05:32:12;;;;;;;12.80;4.85;;;;;;;13.01;100.00;101747.03;4982479;28;20058;-66
2023/05/22 05:34:40;;;;;;;9.63;4.20;;;;;;;13.06;100.00;101761.75;4985285;28;20078;-67
2023/05/22 05:37:07;;;;;;;9.43;4.57;;;;;;;13.00;100.00;101764.59;4989107;28;20485;-67
2023/05/22 05:39:34;;;;;;;10.70;4.93;;;;;;;13.06;100.00;101764.38;4989133;28;20149;-67
2023/05/22 05:42:01;;;;;;;10.57;4.53;;;;;;;12.73;100.00;101768.94;4984405;28;20058;-67
2023/05/22 05:44:28;;;;;;;9.43;4.35;;;;;;;12.42;100.00;101771.59;4989840;28;20141;-66
2023/05/22 05:46:54;;;;;;;8.10;3.05;;;;;;;12.48;100.00;101768.78;4990050;28;20388;-66
2023/05/22 05:49:21;;;;;;;12.63;3.50;;;;;;;12.37;100.00;101766.47;4986038;28;20054;-66
2023/05/22 05:51:48;;;;;;;8.00;2.60;;;;;;;12.33;100.00;101772.72;4984935;28;20610;-67
2023/05/22 05:54:14;;;;;;;9.13;2.42;;;;;;;12.43;100.00;101776.81;4990239;28;20513;-66
2023/05/22 05:56:41;;;;;;;11.07;2.67;;;;;;;12.54;100.00;101779.13;4991820;28;20085;-67
2023/05/22 05:59:08;;;;;;;7.60;2.17;;;;;;;12.50;100.00;101780.09;4989484;28;20046;-66
2023/05/22 06:01:37;;;;;;;11.18;2.88;;;;;;;12.51;100.00;101771.31;4982672;28;20057;-66
2023/05/22 06:04:04;;;;;;;9.55;2.60;;;;;;;12.47;100.00;101777.56;4988489;28;20062;-67
2023/05/22 06:06:35;;;;;;;12.95;3.50;;;;;;;12.48;100.00;101776.66;4990628;28;20070;-66
2023/05/22 06:09:06;;;;;;;7.80;2.25;;;;;;;12.42;100.00;101782.94;4982497;28;20050;-66
2023/05/22 06:11:32;;;;;;;8.15;2.85;;;;;;;12.51;100.00;101782.69;4987514;28;20056;-67
2023/05/22 06:14:04;;;;;;;10.45;3.30;;;;;;;12.85;100.00;101792.19;4992785;28;20081;-66
2023/05/22 06:16:33;;;;;;;11.77;2.35;;;;;;;12.54;100.00;101790.47;4992064;28;20146;-66
2023/05/22 06:19:00;;;;;;;8.00;2.13;;;;;;;12.58;100.00;101798.28;4990860;28;20054;-66
2023/05/22 06:21:27;;;;;;;10.45;2.10;;;;;;;12.64;100.00;101795.44;4989990;28;20050;-66
2023/05/22 06:23:54;;;;;;;11.25;2.47;;;;;;;12.78;100.00;101795.06;4974731;28;20094;-66
2023/05/22 06:26:22;;;;;;;13.68;2.63;;;;;;;12.35;100.00;101798.00;4992165;28;20047;-66
2023/05/22 06:28:50;;;;;;;12.13;3.05;;;;;;;12.60;100.00;101796.47;4992872;28;20054;-67
2023/05/22 06:31:17;;;;;;;13.02;3.03;;;;;;;12.42;100.00;101769.81;4985693;28;20492;-66
2023/05/22 06:33:44;;;;;;;12.43;2.63;;;;;;;12.76;100.00;101802.97;4990605;28;20164;-66
2023/05/22 06:36:11;;;;;;;9.27;2.70;;;;;;;12.92;100.00;101792.88;4992060;28;20465;-67
2023/05/22 06:38:38;;;;;;;11.18;2.67;;;;;;;12.62;100.00;101800.75;4990883;28;20077;-66
2023/05/22 06:41:05;;;;;;;8.75;2.63;;;;;;;12.69;100.00;101802.28;4989980;28;20085;-66
2023/05/22 06:43:32;;;;;;;10.85;3.30;;;;;;;12.75;100.00;101803.91;4989609;28;20050;-67
2023/05/22 06:45:59;;;;;;;9.15;2.60;;;;;;;12.75;100.00;101803.91;4989063;28;20046;-66
2023/05/22 06:48:25;;;;;;;15.88;3.28;;;;;;;12.77;100.00;101798.59;4989553;28;20061;-67
2023/05/22 06:50:52;;;;;;;11.25;2.33;;;;;;;12.94;100.00;101804.19;4989535;28;20042;-66
2023/05/22 06:53:19;;;;;;;14.57;3.40;;;;;;;12.90;100.00;101790.28;4990036;28;20141;-66
2023/05/22 06:55:46;;;;;;;10.43;2.63;;;;;;;12.99;100.00;101793.53;4989570;28;20050;-66
2023/05/22 06:58:12;;;;;;;13.50;3.08;;;;;;;12.77;100.00;101781.06;4990623;28;20086;-67
2023/05/22 07:00:39;;;;;;;13.07;3.10;;;;;;;12.63;100.00;101783.25;4989764;28;20055;-66
2023/05/22 07:03:06;;;;;;;9.45;2.80;;;;;;;12.87;100.00;101779.88;4991464;28;20065;-66
2023/05/22 07:05:33;;;;;;;14.25;2.50;;;;;;;12.93;100.00;101786.72;4991067;28;20055;-66
2023/05/22 07:08:00;;;;;;;8.98;2.05;;;;;;;13.02;100.00;101785.56;4992948;28;20058;-66
2023/05/22 07:10:27;;;;;;;14.65;3.20;;;;;;;13.08;100.00;101780.09;4991414;28;20732;-67
2023/05/22 07:12:54;;;;;;;14.32;3.70;;;;;;;12.73;100.00;101793.44;4990432;28;20062;-66
2023/05/22 07:15:20;;;;;;;8.63;2.47;;;;;;;12.82;100.00;101780.91;4988903;28;20241;-68
2023/05/22 07:17:47;;;;;;;12.05;3.60;;;;;;;12.85;100.00;101781.66;4988726;28;20042;-67
2023/05/22 07:20:15;;;;;;;11.32;2.55;;;;;;;13.01;100.00;101783.84;4988589;28;20141;-67
2023/05/22 07:22:42;;;;;;;8.88;2.10;;;;;;;12.67;100.00;101788.34;4989633;28;20651;-67
2023/05/22 07:25:09;;;;;;;7.55;2.22;;;;;;;12.68;100.00;101792.72;4990673;28;20103;-68
2023/05/22 07:27:36;;;;;;;8.70;2.03;;;;;;;12.62;100.00;101798.13;4994940;28;20077;-67
2023/05/22 07:30:03;;;;;;;13.27;2.50;;;;;;;12.51;100.00;101795.81;4991802;28;20058;-67
2023/05/22 07:32:30;;;;;;;10.00;2.40;;;;;;;12.88;100.00;101807.00;4991520;28;20511;-67
2023/05/22 07:34:56;;;;;;;8.75;2.55;;;;;;;12.79;100.00;101804.66;4991503;28;20137;-68
2023/05/22 07:37:23;;;;;;;12.95;2.22;;;;;;;13.01;100.00;101818.00;4992232;28;20129;-67
2023/05/22 07:39:50;;;;;;;10.95;2.47;;;;;;;12.74;100.00;101817.94;4991851;28;20054;-67
2023/05/22 07:42:17;;;;;;;10.77;2.92;;;;;;;12.98;100.00;101823.34;4992712;28;20132;-67
2023/05/22 07:44:44;;;;;;;14.23;3.22;;;;;;;12.96;100.00;101827.81;4993263;28;20096;-67
2023/05/22 07:47:10;;;;;;;8.50;2.63;;;;;;;13.18;100.00;101812.25;4991336;28;20054;-67
2023/05/22 07:49:37;;;;;;;15.43;3.13;;;;;;;13.37;100.00;101834.47;4992423;28;20050;-67
2023/05/22 07:52:04;;;;;;;13.80;3.47;;;;;;;13.08;100.00;101835.31;4991672;28;20085;-67
2023/05/22 07:54:31;;;;;;;14.27;2.67;;;;;;;13.15;100.00;101817.59;4991133;28;20496;-67
2023/05/22 07:57:02;;;;;;;9.95;2.42;;;;;;;13.20;100.00;101832.31;4992260;28;20085;-67
2023/05/22 07:59:28;;;;;;;10.45;2.58;;;;;;;13.14;100.00;101832.50;4970877;28;20086;-67
2023/05/22 08:01:55;;;;;;;11.75;2.40;;;;;;;13.59;100.00;101834.63;4990443;28;20058;-67
2023/05/22 08:04:24;;;;;;;9.02;2.13;;;;;;;13.45;100.00;101827.16;4989458;28;20046;-67
2023/05/22 08:06:51;;;;;;;9.48;2.25;;;;;;;13.46;100.00;101835.94;4973427;28;20050;-67
2023/05/22 08:09:20;;;;;;;11.27;2.42;;;;;;;13.38;100.00;101840.56;4991727;28;20076;-67
2023/05/22 08:11:46;;;;;;;9.52;2.33;;;;;;;13.68;100.00;101836.94;4991777;28;20136;-67
2023/05/22 08:14:13;;;;;;;10.10;2.30;;;;;;;13.71;100.00;101850.94;4991100;28;20057;-67
2023/05/22 08:16:40;;;;;;;8.07;2.15;;;;;;;13.62;100.00;101847.69;4991083;28;20078;-66
2023/05/22 08:19:07;;;;;;;12.95;2.92;;;;;;;13.47;100.00;101846.41;4991361;28;20463;-66
2023/05/22 08:21:36;;;;;;;10.05;2.17;;;;;;;13.39;100.00;101850.19;4990926;28;20054;-66
2023/05/22 08:24:03;;;;;;;12.32;2.67;;;;;;;13.36;100.00;101850.28;4991941;28;20563;-66
2023/05/22 08:26:32;;;;;;;9.88;2.60;;;;;;;13.43;100.00;101843.91;4991702;28;20050;-66
2023/05/22 08:28:59;;;;;;;9.07;2.10;;;;;;;13.43;100.00;101857.94;4991608;28;20053;-66
2023/05/22 08:31:28;;;;;;;11.77;2.42;;;;;;;13.15;100.00;101852.63;4990503;28;20050;-66
2023/05/22 08:34:01;;;;;;;10.82;2.60;;;;;;;13.24;100.00;101865.53;4991279;28;20054;-67
2023/05/22 08:36:32;;;;;;;12.18;2.83;;;;;;;13.40;100.00;101876.47;4991270;28;20060;-66
2023/05/22 08:39:00;;;;;;;11.27;2.83;;;;;;;13.42;100.00;101860.59;4991397;28;20141;-67
2023/05/22 08:41:28;;;;;;;13.70;2.42;;;;;;;13.43;100.00;101860.56;4991506;28;20097;-67
2023/05/22 08:43:54;;;;;;;13.32;2.88;;;;;;;13.44;100.00;101867.56;4991477;28;20118;-67
2023/05/22 08:46:25;;;;;;;8.00;2.20;;;;;;;13.46;100.00;101881.50;4990541;28;20048;-67
2023/05/22 08:48:55;;;;;;;12.40;2.35;;;;;;;13.46;100.00;101876.25;4970860;28;20078;-67
2023/05/22 08:51:28;;;;;;;10.25;2.55;;;;;;;13.39;100.00;101879.13;4984982;28;20489;-68
2023/05/22 08:53:56;;;;;;;12.45;2.40;;;;;;;13.42;100.00;101863.22;4977608;28;20526;-67
2023/05/22 08:56:23;;;;;;;11.45;2.42;;;;;;;13.63;100.00;101880.09;4990956;28;20046;-67
2023/05/22 08:58:53;;;;;;;20.67;3.33;;;;;;;13.67;100.00;101884.38;4990783;28;20109;-67
2023/05/22 09:01:20;;;;;;;12.43;3.28;;;;;;;13.76;100.00;101889.34;4990139;28;20050;-67
2023/05/22 09:03:49;;;;;;;10.23;2.58;;;;;;;13.91;100.00;101882.69;4991464;28;20109;-67
2023/05/22 09:06:17;;;;;;;11.25;2.40;;;;;;;13.67;100.00;101873.84;4989061;28;20058;-68
2023/05/22 09:08:44;;;;;;;10.55;2.67;;;;;;;13.44;100.00;101885.97;4990577;28;20054;-67
2023/05/22 09:11:12;;;;;;;11.30;2.53;;;;;;;13.63;100.00;101883.63;4989810;28;20081;-68
2023/05/22 09:13:40;;;;;;;10.23;2.53;;;;;;;13.68;100.00;101872.94;4989821;28;20061;-67
2023/05/22 09:16:12;;;;;;;10.90;2.53;;;;;;;13.74;100.00;101888.53;4989955;28;20416;-67
2023/05/22 09:18:40;;;;;;;10.35;2.40;;;;;;;13.67;100.00;101881.75;4991370;28;20054;-67
2023/05/22 09:21:08;;;;;;;8.95;2.13;;;;;;;13.80;100.00;101887.47;4973414;28;20125;-68
2023/05/22 09:23:57;;;;;;;8.77;2.33;;;;;;;14.06;100.00;101878.72;4996277;28;20132;-67
2023/05/22 09:26:28;;;;;;;13.45;2.47;;;;;;;13.69;100.00;101882.56;4990178;28;20484;-67
2023/05/22 09:28:56;;;;;;;9.23;2.17;;;;;;;13.81;100.00;101874.25;4990141;28;20054;-67
2023/05/22 09:31:22;;;;;;;10.60;2.78;;;;;;;13.67;100.00;101856.28;4990076;28;20137;-67
2023/05/22 09:33:49;;;;;;;8.48;2.33;;;;;;;13.71;100.00;101882.50;4990611;28;20054;-67
2023/05/22 09:36:16;;;;;;;7.32;2.30;;;;;;;13.70;100.00;101872.88;4989849;28;20073;-67
2023/05/22 09:38:43;;;;;;;11.93;2.33;;;;;;;13.85;100.00;101883.78;4990326;28;20050;-68
2023/05/22 09:41:10;;;;;;;11.30;2.78;;;;;;;13.86;100.00;101885.50;4990373;28;20678;-67
2023/05/22 09:43:37;;;;;;;10.25;2.70;;;;;;;13.83;100.00;101882.97;4990915;28;20050;-66
2023/05/22 09:46:04;;;;;;;9.32;2.30;;;;;;;13.82;100.00;101883.88;4989250;28;20055;-66
2023/05/22 09:48:35;;;;;;;12.75;2.60;;;;;;;13.84;100.00;101868.03;4990091;28;20066;-66
2023/05/22 09:51:03;;;;;;;12.13;2.47;;;;;;;14.07;100.00;101866.41;4963986;28;20055;-67
2023/05/22 09:53:32;;;;;;;11.40;2.50;;;;;;;14.38;100.00;101877.59;4975218;28;20078;-67
2023/05/22 09:56:00;;;;;;;8.35;2.30;;;;;;;14.49;100.00;101881.63;4986673;28;20481;-66
2023/05/22 09:58:30;;;;;;;14.00;3.17;;;;;;;14.61;100.00;101870.66;4990461;28;20078;-67
2023/05/22 10:00:58;;;;;;;9.93;2.28;;;;;;;14.83;100.00;101869.88;4988915;28;20116;-66
2023/05/22 10:03:26;;;;;;;9.70;2.00;;;;;;;14.71;100.00;101855.34;4990174;28;20046;-66
2023/05/22 10:05:57;;;;;;;11.05;2.90;;;;;;;14.65;100.00;101858.25;4989523;28;20148;-67
2023/05/22 10:08:27;;;;;;;9.50;2.20;;;;;;;14.49;100.00;101858.75;4990717;28;20465;-67
2023/05/22 10:10:54;;;;;;;10.52;2.50;;;;;;;14.78;100.00;101846.31;4989844;28;20181;-66
2023/05/22 10:13:24;;;;;;;7.20;2.03;;;;;;;15.12;100.00;101848.53;4989973;28;20062;-67
2023/05/22 10:15:52;;;;;;;6.10;2.00;;;;;;;15.05;100.00;101847.06;4988452;28;20046;-67
2023/05/22 10:18:19;;;;;;;9.02;1.90;;;;;;;15.18;100.00;101844.78;4989696;28;20054;-67
2023/05/22 10:20:47;;;;;;;8.40;2.20;;;;;;;15.11;100.00;101844.16;4989754;28;20061;-67
2023/05/22 10:23:17;;;;;;;10.75;2.60;;;;;;;15.31;100.00;101860.97;4990072;28;20393;-67
2023/05/22 10:25:44;;;;;;;7.00;2.10;;;;;;;15.45;100.00;101849.88;4988825;28;20086;-67
2023/05/22 10:28:18;;;;;;;7.03;2.17;;;;;;;15.44;100.00;101833.19;4993124;28;20053;-67
2023/05/22 10:31:08;;;;;;;10.65;2.53;;;;;;;15.77;100.00;101834.53;4992339;28;20166;-67
2023/05/22 10:33:43;;;;;;;9.25;2.13;;;;;;;15.73;100.00;101837.25;4981549;28;20046;-67
2023/05/22 10:36:23;;;;;;;8.65;2.30;;;;;;;16.01;100.00;101853.78;4992927;28;20489;-67
2023/05/22 10:39:25;;;;;;;10.90;2.35;;;;;;;16.12;100.00;101841.81;4993749;28;20046;-67
2023/05/22 10:41:52;;;;;;;8.82;2.45;;;;;;;16.54;100.00;101840.00;4992843;28;20120;-66
2023/05/22 10:44:21;;;;;;;12.85;2.28;;;;;;;16.12;100.00;101827.75;4992435;28;20066;-66
2023/05/22 10:46:51;;;;;;;8.48;1.80;;;;;;;16.08;100.00;101821.72;4991602;28;20105;-66
2023/05/22 10:49:22;;;;;;;6.90;1.95;;;;;;;16.29;100.00;101843.72;4991788;28;20552;-66
2023/05/22 10:51:55;;;;;;;8.27;2.10;;;;;;;16.19;100.00;101845.03;4992962;28;20490;-67
2023/05/22 10:54:41;;;;;;;12.30;2.17;;;;;;;15.78;100.00;101849.47;4992621;28;20101;-66
2023/05/22 10:57:10;;;;;;;7.32;1.98;;;;;;;15.94;100.00;101850.53;4992496;28;20085;-67
2023/05/22 10:59:37;;;;;;;10.43;2.40;;;;;;;15.86;100.00;101849.97;4992536;28;20108;-67
2023/05/22 11:02:05;;;;;;;8.98;2.10;;;;;;;15.88;100.00;101851.66;4991078;28;20056;-66
2023/05/22 11:04:34;;;;;;;8.05;2.42;;;;;;;15.96;100.00;101842.53;4991610;28;20042;-66
2023/05/22 11:07:03;;;;;;;8.50;2.10;;;;;;;15.45;100.00;101842.81;4985879;28;20104;-66
2023/05/22 11:09:44;;;;;;;9.38;2.17;;;;;;;15.60;100.00;101857.19;4992844;28;20108;-66
2023/05/22 11:12:27;;;;;;;10.55;2.10;;;;;;;15.28;100.00;101859.34;4992284;28;20601;-68
2023/05/22 11:14:57;;;;;;;9.32;2.50;;;;;;;15.61;100.00;101850.13;4991813;28;20046;-68
2023/05/22 11:17:28;;;;;;;9.73;2.03;;;;;;;15.62;100.00;101851.84;4992223;28;20043;-67
2023/05/22 11:20:04;;;;;;;10.30;1.83;;;;;;;15.61;100.00;101858.03;4994245;28;20059;-67
2023/05/22 11:22:34;;;;;;;9.60;2.50;;;;;;;15.44;100.00;101863.97;4991784;28;20108;-67